createdAt,value
2023-02-18T00:19:42.075Z,686.95
2023-02-18T00:22:09.902Z,686.87
2023-02-18T00:24:38.978Z,667.88
2023-02-18T00:27:05.726Z,711.45
2023-02-18T00:29:33.890Z,734.10
2023-02-18T01:06:22.389Z,800.00
2023-02-18T01:08:49.797Z,668.25
2023-02-18T01:11:16.763Z,703.22
2023-02-18T01:13:43.586Z,740.55
2023-02-18T01:16:11.220Z,728.80
2023-02-18T01:18:38.702Z,740.60
2023-02-18T01:21:08.899Z,671.10
2023-02-18T01:26:05.900Z,679.60
2023-02-18T01:28:33.618Z,750.20
2023-02-18T01:31:06.691Z,692.60
2023-02-18T01:33:34.321Z,694.95
2023-02-18T01:36:01.423Z,379.88
2023-02-18T01:38:28.460Z,373.15
2023-02-18T01:40:55.346Z,419.75
2023-02-18T01:43:22.340Z,478.25
2023-02-18T01:46:03.853Z,520.15
2023-02-18T01:48:53.148Z,609.65
2023-02-18T01:51:28.078Z,569.13
2023-02-18T03:41:29.610Z,357.47
2023-02-18T03:44:03.804Z,243.60
2023-02-18T03:46:32.897Z,408.70
2023-02-18T03:48:59.736Z,241.38
2023-02-18T03:51:28.154Z,299.50
2023-02-18T03:53:55.027Z,247.70
2023-02-18T03:56:22.887Z,376.58
2023-02-18T03:58:50.032Z,282.13
2023-02-18T04:01:16.877Z,288.67
2023-02-18T04:03:43.670Z,608.80
2023-02-18T04:06:10.689Z,454.27
2023-02-18T04:08:37.511Z,445.55
2023-02-18T04:13:32.495Z,457.85
2023-02-18T04:15:59.378Z,405.20
2023-02-18T04:18:27.093Z,423.48
2023-02-18T04:20:53.891Z,486.38
2023-02-18T04:23:20.925Z,551.00
2023-02-18T04:30:42.420Z,681.50
2023-02-18T04:42:58.670Z,451.08
2023-02-18T04:45:26.888Z,315.85
2023-02-18T04:47:54.277Z,429.33
2023-02-18T11:32:16.111Z,1089.60
2023-02-18T11:34:43.998Z,1086.30
2023-02-18T11:39:45.277Z,1103.10
2023-02-18T11:42:17.424Z,1102.33
2023-02-18T11:52:25.012Z,1115.90
2023-02-18T11:55:14.197Z,1118.65
2023-02-18T11:57:50.999Z,1109.95
2023-02-18T12:02:51.425Z,1121.90
2023-02-18T12:05:25.990Z,1093.85
2023-02-18T12:08:00.268Z,1083.03
2023-02-18T12:10:36.222Z,1096.35
2023-02-18T12:15:42.406Z,1109.80
2023-02-18T12:20:53.799Z,1115.80
2023-02-18T12:23:37.965Z,1092.35
2023-02-18T12:26:23.139Z,1113.38
2023-02-18T12:29:05.190Z,1103.77
2023-02-18T12:31:54.412Z,1123.55
2023-02-18T12:40:03.591Z,1114.60
2023-02-18T12:43:04.769Z,1104.78
2023-02-18T12:45:50.514Z,1097.03
2023-02-18T12:48:51.501Z,1100.90
2023-02-18T12:51:18.648Z,1104.85
2023-02-18T12:53:51.899Z,1099.28
2023-02-18T12:56:45.114Z,1111.30
2023-02-18T12:59:44.513Z,1098.60
2023-02-18T13:02:40.814Z,1087.43
2023-02-18T13:05:32.499Z,1086.85
2023-02-18T13:08:05.265Z,1083.50
2023-02-18T13:13:24.674Z,1112.40
2023-02-18T13:16:19.938Z,1076.10
2023-02-18T13:19:00.894Z,1106.50
2023-02-18T13:21:29.661Z,1086.95
2023-02-18T13:24:01.432Z,1081.75
2023-02-18T13:26:31.644Z,1095.80
2023-02-18T13:34:12.000Z,1108.80
2023-02-18T13:36:53.697Z,1031.32
2023-02-18T13:39:23.274Z,1076.53
2023-02-18T13:41:51.732Z,1046.83
2023-02-18T13:44:22.139Z,1100.77
2023-02-18T13:46:57.208Z,1101.90
2023-02-18T13:49:37.593Z,1105.38
2023-02-18T13:54:44.749Z,1109.72
2023-02-18T13:57:16.018Z,1112.70
2023-02-18T13:59:49.647Z,1113.90
2023-02-18T14:02:34.691Z,1113.30
2023-02-18T14:05:20.040Z,1117.23
2023-02-18T14:07:52.976Z,1100.03
2023-02-18T14:10:19.672Z,1112.65
2023-02-18T14:12:58.190Z,1111.15
2023-02-18T14:23:00.229Z,1100.35
2023-02-18T14:26:04.802Z,1107.37
2023-02-18T14:28:34.227Z,1097.63
2023-02-18T14:31:13.312Z,1092.05
2023-02-18T14:34:05.717Z,1103.18
2023-02-18T14:36:49.032Z,1089.83
2023-02-18T14:39:37.845Z,1069.10
2023-02-18T14:42:31.934Z,1107.35
2023-02-18T14:45:31.097Z,1100.10
2023-02-18T14:50:24.645Z,1108.30
2023-02-18T14:52:58.445Z,1099.75
2023-02-18T15:00:25.286Z,1109.20
2023-02-18T15:25:52.429Z,1109.53
2023-02-18T15:28:31.183Z,1097.38
2023-02-18T15:33:29.698Z,1103.00
2023-02-18T15:36:05.652Z,1098.78
2023-02-18T15:51:16.168Z,1107.80
2023-02-18T16:27:34.718Z,1122.60
2023-02-18T16:34:57.885Z,1128.95
2023-02-18T18:33:43.105Z,1111.25
2023-02-18T18:36:10.148Z,1110.75
2023-02-18T18:38:37.026Z,1109.60
2023-02-18T20:41:46.110Z,1103.30
2023-02-18T21:40:47.684Z,1112.90
2023-02-18T21:43:14.722Z,1113.30
2023-02-18T23:14:28.073Z,1102.85
2023-02-18T23:19:46.375Z,1094.43
2023-02-18T23:22:16.184Z,1093.63
2023-02-18T23:24:45.046Z,1095.57
2023-02-18T23:27:14.167Z,1093.80
2023-02-18T23:29:41.390Z,1091.38
2023-02-18T23:32:08.181Z,1097.43
2023-02-18T23:34:35.012Z,1097.10
2023-02-18T23:51:45.824Z,1117.80
2023-02-18T23:54:12.556Z,1112.70
2023-02-18T23:56:39.697Z,1102.68
2023-02-18T23:59:06.901Z,1108.80
